Sarfaq Ittuk — OWDD — position and weather

sailwx.info

Track history (hours):
 
Tides and Currents Weather Stations Pressure Air Temp Water Temp Dewpoint Dewpoint Depression Visibility Wind Speed Wind Dir Waves Ship Positions

Sarfaq Ittuk

Last reported at 2018-Aug-18 00:30 UTC. Time now 2018-Aug-18 00:46 UTC.
Position N 64°04' W 052°11'.

Length 73 m; beam 11.1 m; draft 3.7 m.

Type: Passenger vessel. MMSI: 331000499.

Date/timePositionNaut miles runAvg speedWind from/ knotsBaromVisibWave heightAir tempDewpointWater temp
2018-Aug-18 00:30N 64°04' W 052°11'4 8.3
2018-Aug-18 00:00N 64°05' W 052°02'510.9
2018-Aug-17 23:30N 64°08' W 051°51'4 8.5
2018-Aug-17 23:00N 64°10' W 051°43'0 0.0
2018-Aug-17 22:30N 64°10' W 051°43'0 0.0
2018-Aug-17 22:00N 64°10' W 051°43'0 0.0
2018-Aug-17 21:31N 64°10' W 051°43'0 0.0
2018-Aug-17 21:01N 64°10' W 051°43'0 0.0
2018-Aug-17 20:31N 64°10' W 051°43'0 0.0
2018-Aug-17 20:00N 64°10' W 051°43'0 0.0
2018-Aug-17 19:31N 64°10' W 051°43'0 0.0
2018-Aug-17 19:00N 64°10' W 051°43'0 0.0
2018-Aug-17 18:30N 64°10' W 051°43'0 0.0
2018-Aug-17 18:00N 64°10' W 051°43'0 0.0
2018-Aug-17 17:30N 64°10' W 051°43'0 0.0
2018-Aug-17 17:00N 64°10' W 051°43'0 0.0
2018-Aug-17 16:30N 64°10' W 051°43'0 0.0
2018-Aug-17 16:00N 64°10' W 051°43'0 0.0
2018-Aug-17 15:30N 64°10' W 051°43'0 0.0
2018-Aug-17 15:00N 64°10' W 051°43'0 0.0
2018-Aug-17 14:30N 64°10' W 051°43'0 0.0
2018-Aug-17 13:30N 64°10' W 051°43'0 0.0
2018-Aug-17 13:00N 64°10' W 051°43'0 0.0
2018-Aug-17 12:31N 64°10' W 051°43'0 0.0
2018-Aug-17 12:00N 64°10' W 051°43'0 0.0
2018-Aug-17 11:30N 64°10' W 051°43'0 0.0
2018-Aug-17 11:01N 64°10' W 051°43'0 0.0
2018-Aug-17 10:30N 64°10' W 051°43'0 0.0
2018-Aug-17 10:00N 64°10' W 051°43'0 0.0
2018-Aug-17 09:31N 64°10' W 051°43'2 4.0
2018-Aug-17 09:00N 64°08' W 051°42'510.1
2018-Aug-17 08:30N 64°04' W 051°38'5 9.1
2018-Aug-17 07:57N 63°59' W 051°39'4 9.5
2018-Aug-17 07:30N 63°55' W 051°33'5 9.5
2018-Aug-17 07:00N 63°50' W 051°34'510.1
2018-Aug-17 06:30N 63°45' W 051°36'  
2018-Aug-14 14:41N 63°29' W 051°33'1511.8
2018-Aug-14 13:25N 63°44' W 051°36'512.2
2018-Aug-14 13:00N 63°49' W 051°35'612.5
2018-Aug-14 12:30N 63°55' W 051°33'611.9
2018-Aug-14 12:00N 63°60' W 051°41'611.8
2018-Aug-14 11:30N 64°06' W 051°39'5 9.9
2018-Aug-14 11:00N 64°10' W 051°43'0 0.0
2018-Aug-14 10:30N 64°10' W 051°43'0 0.0
2018-Aug-14 10:00N 64°10' W 051°43'0 0.0
2018-Aug-14 09:31N 64°10' W 051°43'0 0.0
2018-Aug-14 09:00N 64°10' W 051°43'2 4.8
2018-Aug-14 08:30N 64°09' W 051°47'611.6
2018-Aug-14 08:00N 64°06' W 051°59'510.3
2018-Aug-14 07:30N 64°04' W 052°10'611.5
2018-Aug-14 07:01N 64°08' W 052°18'611.5
2018-Aug-14 06:31N 64°13' W 052°24'611.9
2018-Aug-14 06:00N 64°19' W 052°27'612.3
2018-Aug-14 05:30N 64°25' W 052°31'612.3
2018-Aug-14 05:01N 64°31' W 052°34'612.4
2018-Aug-14 04:31N 64°37' W 052°36'612.3
2018-Aug-14 04:00N 64°43' W 052°39'612.2
2018-Aug-14 03:30N 64°49' W 052°42'612.3
2018-Aug-14 03:00N 64°55' W 052°44'612.1
2018-Aug-14 02:30N 65°01' W 052°47'612.3
2018-Aug-14 02:00N 65°07' W 052°50'612.5
2018-Aug-14 01:30N 65°13' W 052°51'612.3
2018-Aug-14 01:01N 65°20' W 052°51'27 5.9
2018-Aug-13 20:32N 65°43' W 053°20'212.3
2018-Aug-13 20:22N 65°45' W 053°19'  
2018-Aug-11 13:03N 65°49' W 053°19'26 8.7
2018-Aug-11 10:03N 65°25' W 052°54'0 2.1
2018-Aug-11 10:00N 65°25' W 052°54'0 0.0
2018-Aug-11 09:17N 65°25' W 052°54'0 0.0
2018-Aug-11 09:00N 65°25' W 052°54'3 5.4
2018-Aug-11 08:27N 65°22' W 052°51'6 9.1
2018-Aug-11 07:48N 65°16' W 052°51'3 9.2
2018-Aug-11 07:30N 65°13' W 052°51'5 9.2
2018-Aug-11 07:00N 65°09' W 052°50'4 8.8
2018-Aug-11 06:30N 65°04' W 052°49'5 9.1
2018-Aug-11 06:00N 64°60' W 052°46'510.3
2018-Aug-11 05:30N 64°55' W 052°44'510.6
2018-Aug-11 05:00N 64°50' W 052°42'510.4
2018-Aug-11 04:31N 64°45' W 052°39'510.4
2018-Aug-11 04:00N 64°39' W 052°37'510.3
2018-Aug-11 03:30N 64°34' W 052°35'510.3
2018-Aug-11 03:00N 64°29' W 052°33'510.1
2018-Aug-11 02:30N 64°24' W 052°30'5 9.9
2018-Aug-11 02:00N 64°20' W 052°28'510.2
2018-Aug-11 01:30N 64°15' W 052°25'5 9.8
2018-Aug-11 01:00N 64°10' W 052°22'510.3
2018-Aug-11 00:30N 64°06' W 052°14'4 8.2
2018-Aug-11 00:00N 64°04' W 052°05'713.3
2018-Aug-10 23:30N 64°08' W 051°52'5 9.4
2018-Aug-10 23:00N 64°10' W 051°43'0 0.0
2018-Aug-10 22:30N 64°10' W 051°43'0 0.0
2018-Aug-10 22:00N 64°10' W 051°43'0 0.0
2018-Aug-10 21:30N 64°10' W 051°43'0 0.0
2018-Aug-10 21:00N 64°10' W 051°43'0 0.0
2018-Aug-10 20:30N 64°10' W 051°43'0 0.0
2018-Aug-10 20:00N 64°10' W 051°43'0 0.0
2018-Aug-10 19:30N 64°10' W 051°43'0 0.0
2018-Aug-10 19:00N 64°10' W 051°43'0 0.0
2018-Aug-10 18:30N 64°10' W 051°43'0 0.0
2018-Aug-10 18:00N 64°10' W 051°43'0 0.0
2018-Aug-10 17:30N 64°10' W 051°43'0 0.0
2018-Aug-10 17:00N 64°10' W 051°43'0 0.0
2018-Aug-10 16:30N 64°10' W 051°43'0 0.0
2018-Aug-10 16:00N 64°10' W 051°43'0 0.0
2018-Aug-10 15:30N 64°10' W 051°43'0 0.0
2018-Aug-10 15:00N 64°10' W 051°43'0 0.0
2018-Aug-10 14:29N 64°10' W 051°43'0 0.0
2018-Aug-10 14:00N 64°10' W 051°43'0 0.0
2018-Aug-10 13:30N 64°10' W 051°43'0 0.0
2018-Aug-10 13:00N 64°10' W 051°43'0 0.0
2018-Aug-10 12:30N 64°10' W 051°43'0 0.0
2018-Aug-10 12:00N 64°10' W 051°43'0 0.0
2018-Aug-10 11:30N 64°10' W 051°43'0 0.0
2018-Aug-10 11:00N 64°10' W 051°43'0 0.0
2018-Aug-10 10:31N 64°10' W 051°43'0 0.0
2018-Aug-10 10:00N 64°10' W 051°43'0 0.0
2018-Aug-10 09:30N 64°10' W 051°43'3 5.2
2018-Aug-10 09:01N 64°08' W 051°41'5 9.0
2018-Aug-10 08:30N 64°04' W 051°38'5 9.3
2018-Aug-10 07:59N 63°59' W 051°39'5 9.6
2018-Aug-10 07:30N 63°55' W 051°33'5 9.8
2018-Aug-10 06:59N 63°50' W 051°34'510.0
2018-Aug-10 06:30N 63°45' W 051°36'  
Track history (hours):
 
Tides and Currents Weather Stations Pressure Air Temp Water Temp Dewpoint Dewpoint Depression Visibility Wind Speed Wind Dir Waves Ship Positions

Sarfaq Ittuk

Last reported at 2018-Aug-18 00:30 UTC. Time now 2018-Aug-18 00:46 UTC.
Position N 64°04' W 052°11'.

Length 73 m; beam 11.1 m; draft 3.7 m.

Type: Passenger vessel. MMSI: 331000499.

Date/timePositionNaut miles runAvg speedWind from/ knotsBaromVisibWave heightAir tempDewpointWater temp
2018-Aug-18 00:30N 64°04' W 052°11'4 8.3
2018-Aug-18 00:00N 64°05' W 052°02'510.9
2018-Aug-17 23:30N 64°08' W 051°51'4 8.5
2018-Aug-17 23:00N 64°10' W 051°43'0 0.0
2018-Aug-17 22:30N 64°10' W 051°43'0 0.0
2018-Aug-17 22:00N 64°10' W 051°43'0 0.0
2018-Aug-17 21:31N 64°10' W 051°43'0 0.0
2018-Aug-17 21:01N 64°10' W 051°43'0 0.0
2018-Aug-17 20:31N 64°10' W 051°43'0 0.0
2018-Aug-17 20:00N 64°10' W 051°43'0 0.0
2018-Aug-17 19:31N 64°10' W 051°43'0 0.0
2018-Aug-17 19:00N 64°10' W 051°43'0 0.0
2018-Aug-17 18:30N 64°10' W 051°43'0 0.0
2018-Aug-17 18:00N 64°10' W 051°43'0 0.0
2018-Aug-17 17:30N 64°10' W 051°43'0 0.0
2018-Aug-17 17:00N 64°10' W 051°43'0 0.0
2018-Aug-17 16:30N 64°10' W 051°43'0 0.0
2018-Aug-17 16:00N 64°10' W 051°43'0 0.0
2018-Aug-17 15:30N 64°10' W 051°43'0 0.0
2018-Aug-17 15:00N 64°10' W 051°43'0 0.0
2018-Aug-17 14:30N 64°10' W 051°43'0 0.0
2018-Aug-17 13:30N 64°10' W 051°43'0 0.0
2018-Aug-17 13:00N 64°10' W 051°43'0 0.0
2018-Aug-17 12:31N 64°10' W 051°43'0 0.0
2018-Aug-17 12:00N 64°10' W 051°43'0 0.0
2018-Aug-17 11:30N 64°10' W 051°43'0 0.0
2018-Aug-17 11:01N 64°10' W 051°43'0 0.0
2018-Aug-17 10:30N 64°10' W 051°43'0 0.0
2018-Aug-17 10:00N 64°10' W 051°43'0 0.0
2018-Aug-17 09:31N 64°10' W 051°43'2 4.0
2018-Aug-17 09:00N 64°08' W 051°42'510.1
2018-Aug-17 08:30N 64°04' W 051°38'5 9.1
2018-Aug-17 07:57N 63°59' W 051°39'4 9.5
2018-Aug-17 07:30N 63°55' W 051°33'5 9.5
2018-Aug-17 07:00N 63°50' W 051°34'510.1
2018-Aug-17 06:30N 63°45' W 051°36'  
2018-Aug-14 14:41N 63°29' W 051°33'1511.8
2018-Aug-14 13:25N 63°44' W 051°36'512.2
2018-Aug-14 13:00N 63°49' W 051°35'612.5
2018-Aug-14 12:30N 63°55' W 051°33'611.9
2018-Aug-14 12:00N 63°60' W 051°41'611.8
2018-Aug-14 11:30N 64°06' W 051°39'5 9.9
2018-Aug-14 11:00N 64°10' W 051°43'0 0.0
2018-Aug-14 10:30N 64°10' W 051°43'0 0.0
2018-Aug-14 10:00N 64°10' W 051°43'0 0.0
2018-Aug-14 09:31N 64°10' W 051°43'0 0.0
2018-Aug-14 09:00N 64°10' W 051°43'2 4.8
2018-Aug-14 08:30N 64°09' W 051°47'611.6
2018-Aug-14 08:00N 64°06' W 051°59'510.3
2018-Aug-14 07:30N 64°04' W 052°10'611.5
2018-Aug-14 07:01N 64°08' W 052°18'611.5
2018-Aug-14 06:31N 64°13' W 052°24'611.9
2018-Aug-14 06:00N 64°19' W 052°27'612.3
2018-Aug-14 05:30N 64°25' W 052°31'612.3
2018-Aug-14 05:01N 64°31' W 052°34'612.4
2018-Aug-14 04:31N 64°37' W 052°36'612.3
2018-Aug-14 04:00N 64°43' W 052°39'612.2
2018-Aug-14 03:30N 64°49' W 052°42'612.3
2018-Aug-14 03:00N 64°55' W 052°44'612.1
2018-Aug-14 02:30N 65°01' W 052°47'612.3
2018-Aug-14 02:00N 65°07' W 052°50'612.5
2018-Aug-14 01:30N 65°13' W 052°51'612.3
2018-Aug-14 01:01N 65°20' W 052°51'27 5.9
2018-Aug-13 20:32N 65°43' W 053°20'212.3
2018-Aug-13 20:22N 65°45' W 053°19'  
2018-Aug-11 13:03N 65°49' W 053°19'26 8.7
2018-Aug-11 10:03N 65°25' W 052°54'0 2.1
2018-Aug-11 10:00N 65°25' W 052°54'0 0.0
2018-Aug-11 09:17N 65°25' W 052°54'0 0.0
2018-Aug-11 09:00N 65°25' W 052°54'3 5.4
2018-Aug-11 08:27N 65°22' W 052°51'6 9.1
2018-Aug-11 07:48N 65°16' W 052°51'3 9.2
2018-Aug-11 07:30N 65°13' W 052°51'5 9.2
2018-Aug-11 07:00N 65°09' W 052°50'4 8.8
2018-Aug-11 06:30N 65°04' W 052°49'5 9.1
2018-Aug-11 06:00N 64°60' W 052°46'510.3
2018-Aug-11 05:30N 64°55' W 052°44'510.6
2018-Aug-11 05:00N 64°50' W 052°42'510.4
2018-Aug-11 04:31N 64°45' W 052°39'510.4
2018-Aug-11 04:00N 64°39' W 052°37'510.3
2018-Aug-11 03:30N 64°34' W 052°35'510.3
2018-Aug-11 03:00N 64°29' W 052°33'510.1
2018-Aug-11 02:30N 64°24' W 052°30'5 9.9
2018-Aug-11 02:00N 64°20' W 052°28'510.2
2018-Aug-11 01:30N 64°15' W 052°25'5 9.8
2018-Aug-11 01:00N 64°10' W 052°22'510.3
2018-Aug-11 00:30N 64°06' W 052°14'4 8.2
2018-Aug-11 00:00N 64°04' W 052°05'713.3
2018-Aug-10 23:30N 64°08' W 051°52'5 9.4
2018-Aug-10 23:00N 64°10' W 051°43'0 0.0
2018-Aug-10 22:30N 64°10' W 051°43'0 0.0
2018-Aug-10 22:00N 64°10' W 051°43'0 0.0
2018-Aug-10 21:30N 64°10' W 051°43'0 0.0
2018-Aug-10 21:00N 64°10' W 051°43'0 0.0
2018-Aug-10 20:30N 64°10' W 051°43'0 0.0
2018-Aug-10 20:00N 64°10' W 051°43'0 0.0
2018-Aug-10 19:30N 64°10' W 051°43'0 0.0
2018-Aug-10 19:00N 64°10' W 051°43'0 0.0
2018-Aug-10 18:30N 64°10' W 051°43'0 0.0
2018-Aug-10 18:00N 64°10' W 051°43'0 0.0
2018-Aug-10 17:30N 64°10' W 051°43'0 0.0
2018-Aug-10 17:00N 64°10' W 051°43'0 0.0
2018-Aug-10 16:30N 64°10' W 051°43'0 0.0
2018-Aug-10 16:00N 64°10' W 051°43'0 0.0
2018-Aug-10 15:30N 64°10' W 051°43'0 0.0
2018-Aug-10 15:00N 64°10' W 051°43'0 0.0
2018-Aug-10 14:29N 64°10' W 051°43'0 0.0
2018-Aug-10 14:00N 64°10' W 051°43'0 0.0
2018-Aug-10 13:30N 64°10' W 051°43'0 0.0
2018-Aug-10 13:00N 64°10' W 051°43'0 0.0
2018-Aug-10 12:30N 64°10' W 051°43'0 0.0
2018-Aug-10 12:00N 64°10' W 051°43'0 0.0
2018-Aug-10 11:30N 64°10' W 051°43'0 0.0
2018-Aug-10 11:00N 64°10' W 051°43'0 0.0
2018-Aug-10 10:31N 64°10' W 051°43'0 0.0
2018-Aug-10 10:00N 64°10' W 051°43'0 0.0
2018-Aug-10 09:30N 64°10' W 051°43'3 5.2
2018-Aug-10 09:01N 64°08' W 051°41'5 9.0
2018-Aug-10 08:30N 64°04' W 051°38'5 9.3
2018-Aug-10 07:59N 63°59' W 051°39'5 9.6
2018-Aug-10 07:30N 63°55' W 051°33'5 9.8
2018-Aug-10 06:59N 63°50' W 051°34'510.0
2018-Aug-10 06:30N 63°45' W 051°36'  

Dump ship's entire track history